createdAt,value
2022-11-20T00:01:20.867Z,3.82
2022-11-20T00:03:48.100Z,4.22
2022-11-20T00:06:17.671Z,4.30
2022-11-20T00:08:45.147Z,4.13
2022-11-20T00:11:17.419Z,4.44
2022-11-20T00:13:48.338Z,3.94
2022-11-20T00:16:17.264Z,4.44
2022-11-20T00:18:45.004Z,4.92
2022-11-20T00:21:23.589Z,4.22
2022-11-20T00:23:51.268Z,3.84
2022-11-20T00:26:20.207Z,4.13
2022-11-20T00:28:55.464Z,4.85
2022-11-20T00:31:22.762Z,4.30
2022-11-20T00:33:49.710Z,4.55
2022-11-20T00:36:18.999Z,5.25
2022-11-20T00:38:47.205Z,5.22
2022-11-20T00:41:17.169Z,5.11
2022-11-20T00:43:44.375Z,5.31
2022-11-20T00:46:14.693Z,5.55
2022-11-20T00:48:41.982Z,4.85
2022-11-20T00:51:09.254Z,5.26
2022-11-20T00:53:36.112Z,5.39
2022-11-20T00:56:03.823Z,5.26
2022-11-20T00:58:34.189Z,5.39
2022-11-20T01:01:26.980Z,5.60
2022-11-20T01:03:55.395Z,5.73
2022-11-20T01:06:25.924Z,4.44
2022-11-20T01:08:57.036Z,4.50
2022-11-20T01:11:26.349Z,4.90
2022-11-20T01:13:54.340Z,4.97
2022-11-20T01:16:26.486Z,5.88
2022-11-20T01:18:59.149Z,5.82
2022-11-20T01:21:29.160Z,5.04
2022-11-20T01:23:56.120Z,4.62
2022-11-20T01:26:25.562Z,4.60
2022-11-20T01:28:59.383Z,4.96
2022-11-20T01:31:30.152Z,5.06
2022-11-20T01:33:59.052Z,4.91
2022-11-20T01:36:27.946Z,5.30
2022-11-20T01:38:59.109Z,5.24
2022-11-20T01:41:46.218Z,5.13
2022-11-20T01:44:16.149Z,4.85
2022-11-20T01:46:58.044Z,5.24
2022-11-20T01:49:42.993Z,5.02
2022-11-20T01:52:18.627Z,5.30
2022-11-20T01:54:51.728Z,4.74
2022-11-20T01:57:19.549Z,3.58
2022-11-20T01:59:51.479Z,4.17
2022-11-20T02:02:18.422Z,4.22
2022-11-20T02:04:45.699Z,4.51
2022-11-20T02:07:13.118Z,4.02
2022-11-20T02:09:40.986Z,4.38
2022-11-20T02:12:27.936Z,4.88
2022-11-20T02:14:54.824Z,4.57
2022-11-20T02:17:21.553Z,4.17
2022-11-20T02:19:50.491Z,3.91
2022-11-20T02:22:30.451Z,3.56
2022-11-20T02:24:58.488Z,4.05
2022-11-20T02:27:25.373Z,3.73
2022-11-20T02:29:55.281Z,3.68
2022-11-20T02:32:34.081Z,3.54
2022-11-20T02:35:10.529Z,3.21
2022-11-20T02:37:41.073Z,2.98
2022-11-20T02:40:08.764Z,2.79
2022-11-20T02:42:36.763Z,2.66
2022-11-20T02:45:04.729Z,2.93
2022-11-20T02:47:31.787Z,3.13
2022-11-20T02:49:58.828Z,2.84
2022-11-20T02:52:26.305Z,2.59
2022-11-20T02:54:53.297Z,2.75
2022-11-20T02:57:20.182Z,2.53
2022-11-20T02:59:47.050Z,3.35
2022-11-20T03:02:13.932Z,3.43
2022-11-20T03:04:40.767Z,4.48
2022-11-20T03:07:08.551Z,5.08
2022-11-20T03:09:35.454Z,5.79
2022-11-20T03:12:02.164Z,5.22
2022-11-20T03:14:29.421Z,4.90
2022-11-20T03:16:57.077Z,5.58
2022-11-20T03:19:24.288Z,5.48
2022-11-20T03:21:51.147Z,5.96
2022-11-20T03:24:17.841Z,4.43
2022-11-20T03:26:44.689Z,4.69
2022-11-20T03:29:11.328Z,5.55
2022-11-20T03:31:43.437Z,5.44
2022-11-20T03:34:11.890Z,4.88
2022-11-20T03:36:40.202Z,4.59
2022-11-20T03:39:07.638Z,4.10
2022-11-20T03:41:38.810Z,3.77
2022-11-20T03:44:07.899Z,3.45
2022-11-20T03:46:34.896Z,3.92
2022-11-20T03:49:07.744Z,4.15
2022-11-20T03:51:36.911Z,3.58
2022-11-20T03:54:06.797Z,3.87
2022-11-20T03:56:35.831Z,4.10
2022-11-20T03:59:04.705Z,5.08
2022-11-20T04:01:34.169Z,4.70
2022-11-20T04:04:01.625Z,4.39
2022-11-20T04:06:36.563Z,4.77
2022-11-20T04:09:03.564Z,4.68
2022-11-20T04:11:32.353Z,5.26
2022-11-20T04:14:01.423Z,5.81
2022-11-20T04:16:31.292Z,6.33
2022-11-20T04:19:00.306Z,5.19
2022-11-20T04:21:27.586Z,5.72
2022-11-20T04:23:55.064Z,4.69
2022-11-20T04:26:23.376Z,5.82
2022-11-20T04:28:50.550Z,6.45
2022-11-20T04:31:19.562Z,7.16
2022-11-20T04:33:46.599Z,7.54
2022-11-20T04:36:15.891Z,7.65
2022-11-20T04:38:45.151Z,8.16
2022-11-20T04:41:19.656Z,8.42
2022-11-20T04:43:53.548Z,8.74
2022-11-20T04:46:21.817Z,8.35
2022-11-20T04:48:49.705Z,8.28
2022-11-20T04:51:16.590Z,8.10
2022-11-20T04:53:43.538Z,8.02
2022-11-20T04:56:12.750Z,8.11
2022-11-20T04:58:40.267Z,8.83
2022-11-20T05:01:10.189Z,9.77
2022-11-20T05:03:41.991Z,10.30
2022-11-20T05:06:10.444Z,10.52
2022-11-20T05:08:37.300Z,10.15
2022-11-20T05:11:06.340Z,10.86
2022-11-20T05:13:33.299Z,11.04
2022-11-20T05:16:09.471Z,11.74
2022-11-20T05:18:37.574Z,11.11
2022-11-20T05:21:04.683Z,10.47
2022-11-20T05:23:32.891Z,10.78
2022-11-20T05:26:00.088Z,10.33
2022-11-20T05:28:28.585Z,11.10
2022-11-20T05:30:55.531Z,9.65
2022-11-20T05:33:22.776Z,9.57
2022-11-20T05:35:50.082Z,9.72
2022-11-20T05:38:17.321Z,9.39
2022-11-20T05:40:44.259Z,9.19
2022-11-20T05:43:11.137Z,9.34
2022-11-20T05:45:38.232Z,8.49
2022-11-20T05:48:05.288Z,8.69
2022-11-20T05:50:35.253Z,9.51
2022-11-20T05:53:02.137Z,10.26
2022-11-20T05:55:29.233Z,9.93
2022-11-20T05:57:56.357Z,10.58
2022-11-20T06:00:23.822Z,10.10
2022-11-20T06:02:50.787Z,9.51
2022-11-20T06:05:17.720Z,7.94
2022-11-20T06:07:44.613Z,9.07
2022-11-20T06:10:11.559Z,8.95
2022-11-20T06:12:38.427Z,9.43
2022-11-20T06:15:06.875Z,9.96
2022-11-20T06:17:33.717Z,10.07
2022-11-20T06:20:00.641Z,10.62
2022-11-20T06:22:27.484Z,10.47
2022-11-20T06:24:54.355Z,10.55
2022-11-20T06:27:21.193Z,11.46
2022-11-20T06:29:53.757Z,11.18
2022-11-20T06:32:20.644Z,11.03
2022-11-20T06:34:47.536Z,11.37
2022-11-20T06:37:14.441Z,11.11
2022-11-20T06:39:48.422Z,11.32
2022-11-20T06:42:15.312Z,11.25
2022-11-20T06:44:42.177Z,11.61
2022-11-20T06:47:09.015Z,11.63
2022-11-20T06:49:41.694Z,11.51
2022-11-20T06:52:08.530Z,11.62
2022-11-20T06:54:35.186Z,11.30
2022-11-20T06:57:02.077Z,11.24
2022-11-20T06:59:28.938Z,11.54
2022-11-20T07:01:55.808Z,11.38
2022-11-20T07:04:22.678Z,11.23
2022-11-20T07:06:49.624Z,10.95
2022-11-20T07:09:17.552Z,11.52
2022-11-20T07:11:44.400Z,11.62
2022-11-20T07:14:11.565Z,11.83
2022-11-20T07:16:38.455Z,11.40
2022-11-20T07:19:05.356Z,11.53
2022-11-20T07:21:32.186Z,11.48
2022-11-20T07:23:58.843Z,12.46
2022-11-20T07:26:25.722Z,12.12
2022-11-20T07:28:53.558Z,12.26
2022-11-20T07:31:20.434Z,12.05
2022-11-20T07:33:47.937Z,11.91
2022-11-20T07:36:14.817Z,11.93
2022-11-20T07:38:41.707Z,11.87
2022-11-20T07:41:08.543Z,12.24
2022-11-20T07:43:40.828Z,12.57
2022-11-20T07:46:08.257Z,11.97
2022-11-20T07:48:35.171Z,11.96
2022-11-20T07:51:02.145Z,11.97
2022-11-20T07:53:29.003Z,12.58
2022-11-20T07:55:55.890Z,12.76
2022-11-20T07:58:23.097Z,12.66
2022-11-20T08:00:50.105Z,12.24
2022-11-20T08:03:21.661Z,12.32
2022-11-20T08:05:51.452Z,12.08
2022-11-20T08:08:18.287Z,12.24
2022-11-20T08:10:44.967Z,11.70
2022-11-20T08:13:30.329Z,11.90
2022-11-20T08:15:57.168Z,11.69
2022-11-20T08:18:31.356Z,11.93
2022-11-20T08:21:02.514Z,12.33
2022-11-20T08:23:29.379Z,12.01
2022-11-20T08:25:56.227Z,12.77
2022-11-20T08:28:23.141Z,12.92
2022-11-20T08:30:51.379Z,12.18
2022-11-20T08:33:19.237Z,12.39
2022-11-20T08:35:46.314Z,12.86
2022-11-20T08:38:13.189Z,12.64
2022-11-20T08:40:41.088Z,12.72
2022-11-20T08:43:07.960Z,12.84
2022-11-20T08:45:35.532Z,12.50
2022-11-20T08:48:03.603Z,12.50
2022-11-20T08:50:33.488Z,12.01
2022-11-20T08:53:05.684Z,12.31
2022-11-20T08:55:32.649Z,12.26
2022-11-20T08:57:59.496Z,12.96
2022-11-20T09:00:28.449Z,12.59
2022-11-20T09:02:55.520Z,12.89
2022-11-20T09:05:22.399Z,13.39
2022-11-20T09:07:49.258Z,12.98
2022-11-20T09:10:23.974Z,14.03
2022-11-20T09:12:53.089Z,13.69
2022-11-20T09:15:20.770Z,13.38
2022-11-20T09:17:54.676Z,13.79
2022-11-20T09:20:22.033Z,13.63
2022-11-20T09:22:49.384Z,14.04
2022-11-20T09:25:16.501Z,13.43
2022-11-20T09:27:45.216Z,13.63
2022-11-20T09:30:13.050Z,13.93
2022-11-20T09:32:40.658Z,14.10
2022-11-20T09:35:07.970Z,13.96
2022-11-20T09:37:34.918Z,13.79
2022-11-20T09:40:02.025Z,13.94
2022-11-20T09:42:46.815Z,13.78
2022-11-20T09:45:23.711Z,13.45
2022-11-20T09:48:12.233Z,13.82
2022-11-20T09:50:49.791Z,13.86
2022-11-20T09:53:22.491Z,14.32
2022-11-20T09:55:49.782Z,14.33
2022-11-20T09:58:41.408Z,14.05
2022-11-20T10:01:19.620Z,14.29
2022-11-20T10:03:57.776Z,14.59
2022-11-20T10:06:31.701Z,14.67
2022-11-20T10:09:13.680Z,14.71
2022-11-20T10:12:03.285Z,14.83
2022-11-20T10:15:12.455Z,13.99
2022-11-20T10:18:07.232Z,14.35
2022-11-20T10:21:17.703Z,14.31
2022-11-20T10:24:00.507Z,14.13
2022-11-20T10:26:32.929Z,14.45
2022-11-20T10:29:20.200Z,14.22
2022-11-20T10:31:50.927Z,13.83
2022-11-20T10:34:23.476Z,13.42
2022-11-20T10:36:56.960Z,13.23
2022-11-20T10:39:35.449Z,13.48
2022-11-20T10:42:02.789Z,12.53
2022-11-20T10:44:53.898Z,11.96
2022-11-20T10:47:23.372Z,11.59
2022-11-20T10:49:54.937Z,12.20
2022-11-20T10:52:44.188Z,12.10
2022-11-20T10:55:37.327Z,12.54
2022-11-20T10:58:35.124Z,12.76
2022-11-20T11:01:15.940Z,13.78
2022-11-20T11:03:44.555Z,13.70
2022-11-20T11:06:34.269Z,13.86
2022-11-20T11:09:10.139Z,12.92
2022-11-20T11:11:37.245Z,13.95
2022-11-20T11:14:15.798Z,14.84
2022-11-20T11:16:59.035Z,14.73
2022-11-20T11:19:26.304Z,14.03
2022-11-20T11:21:56.034Z,14.37
2022-11-20T11:24:42.610Z,14.69
2022-11-20T11:27:18.976Z,14.06
2022-11-20T11:29:47.057Z,13.64
2022-11-20T11:32:21.756Z,13.57
2022-11-20T11:35:28.160Z,13.78
2022-11-20T11:38:04.060Z,14.49
2022-11-20T11:40:33.668Z,14.84
2022-11-20T11:43:03.955Z,14.53
2022-11-20T11:45:30.919Z,13.48
2022-11-20T11:48:04.368Z,14.76
2022-11-20T11:50:32.215Z,14.08
2022-11-20T11:53:14.462Z,15.19
2022-11-20T11:55:56.022Z,14.63
2022-11-20T11:58:36.127Z,14.14
2022-11-20T12:01:30.613Z,13.75
2022-11-20T12:04:05.952Z,13.80
2022-11-20T12:06:34.364Z,13.73
2022-11-20T12:09:04.589Z,14.17
2022-11-20T12:11:48.267Z,14.92
2022-11-20T12:14:25.179Z,14.97
2022-11-20T12:16:53.952Z,14.74
2022-11-20T12:19:21.420Z,15.14
2022-11-20T12:22:09.467Z,15.19
2022-11-20T12:24:36.245Z,15.46
2022-11-20T12:27:03.038Z,15.13
2022-11-20T12:29:47.733Z,15.09
2022-11-20T12:32:17.586Z,15.01
2022-11-20T12:35:01.588Z,14.93
2022-11-20T12:37:28.401Z,14.81
2022-11-20T12:40:00.158Z,15.47
2022-11-20T12:43:08.780Z,14.85
2022-11-20T12:45:58.028Z,14.91
2022-11-20T12:48:45.006Z,13.74
2022-11-20T12:51:31.762Z,14.31
2022-11-20T12:54:13.775Z,14.05
2022-11-20T12:56:51.490Z,14.26
2022-11-20T12:59:30.197Z,15.06
2022-11-20T13:02:02.653Z,15.36
2022-11-20T13:04:35.495Z,15.78
2022-11-20T13:07:04.425Z,15.36
2022-11-20T13:09:31.417Z,15.12
2022-11-20T13:12:06.673Z,16.00
2022-11-20T13:14:41.895Z,14.76
2022-11-20T13:17:18.346Z,15.65
2022-11-20T13:19:52.715Z,15.57
2022-11-20T13:22:29.485Z,15.55
2022-11-20T13:24:56.764Z,15.43
2022-11-20T13:27:24.427Z,15.47
2022-11-20T13:30:16.391Z,14.83
2022-11-20T13:32:50.444Z,15.69
2022-11-20T13:35:29.645Z,15.25
2022-11-20T13:38:09.620Z,15.95
2022-11-20T13:40:56.207Z,15.83
2022-11-20T13:43:38.243Z,15.62
2022-11-20T13:46:10.045Z,15.60
2022-11-20T13:48:43.334Z,15.02
2022-11-20T13:51:31.959Z,15.10
2022-11-20T13:54:18.935Z,15.05
2022-11-20T13:56:51.619Z,14.99
2022-11-20T13:59:30.066Z,14.53
2022-11-20T14:01:57.044Z,14.48
2022-11-20T14:04:44.808Z,14.32
2022-11-20T14:07:12.041Z,14.33
2022-11-20T14:09:40.096Z,14.50
2022-11-20T14:12:20.998Z,14.85
2022-11-20T14:14:53.555Z,14.85
2022-11-20T14:17:23.708Z,14.94
2022-11-20T14:19:54.238Z,15.36
2022-11-20T14:22:28.089Z,15.02
2022-11-20T14:25:08.109Z,14.99
2022-11-20T14:27:38.191Z,15.10
2022-11-20T14:30:05.889Z,15.33
2022-11-20T14:32:33.135Z,15.08
2022-11-20T14:35:04.463Z,14.82
2022-11-20T14:37:34.966Z,14.80
2022-11-20T14:40:01.926Z,14.72
2022-11-20T14:42:29.685Z,14.86
2022-11-20T14:44:58.997Z,14.62
2022-11-20T14:47:31.308Z,15.02
2022-11-20T14:49:59.222Z,14.94
2022-11-20T14:52:28.582Z,14.58
2022-11-20T14:54:57.464Z,14.08
2022-11-20T14:57:35.716Z,14.29
2022-11-20T15:00:05.480Z,13.85
2022-11-20T15:02:32.941Z,14.15
2022-11-20T15:05:02.803Z,13.86
2022-11-20T15:07:33.151Z,13.78
2022-11-20T15:10:12.505Z,13.48
2022-11-20T15:12:52.076Z,13.53
2022-11-20T15:15:36.915Z,13.04
2022-11-20T15:18:04.819Z,13.19
2022-11-20T15:20:33.556Z,13.13
2022-11-20T15:23:00.465Z,13.47
2022-11-20T15:25:27.479Z,12.77
2022-11-20T15:27:56.869Z,12.48
2022-11-20T15:30:26.010Z,12.97
2022-11-20T15:32:52.916Z,12.58
2022-11-20T15:37:55.082Z,12.75
2022-11-20T15:40:21.944Z,13.72
2022-11-20T15:43:08.186Z,12.96
2022-11-20T15:45:46.706Z,13.24
2022-11-20T15:48:22.519Z,12.79
2022-11-20T15:50:55.527Z,12.52
2022-11-20T15:53:22.513Z,12.59
2022-11-20T15:55:49.763Z,12.66
2022-11-20T15:58:18.155Z,12.96
2022-11-20T16:03:20.815Z,13.34
2022-11-20T16:05:48.087Z,12.81
2022-11-20T16:10:56.570Z,12.09
2022-11-20T16:13:42.049Z,12.40
2022-11-20T16:16:21.907Z,12.33
2022-11-20T16:30:46.149Z,12.77
2022-11-20T16:33:15.213Z,12.95
2022-11-20T16:38:12.393Z,13.57
2022-11-20T16:43:54.331Z,13.24
2022-11-20T16:46:23.408Z,13.69
2022-11-20T16:48:55.327Z,13.42
2022-11-20T16:51:23.061Z,13.21
2022-11-20T16:53:51.183Z,12.67
2022-11-20T16:56:20.213Z,12.63
2022-11-20T16:58:48.821Z,12.33
2022-11-20T17:01:18.698Z,12.48
2022-11-20T17:03:46.829Z,12.94
2022-11-20T17:06:15.894Z,12.61
2022-11-20T17:08:43.048Z,12.95
2022-11-20T17:11:14.466Z,12.91
2022-11-20T17:13:41.463Z,13.02
2022-11-20T17:16:13.408Z,12.58
2022-11-20T17:18:41.178Z,12.40
2022-11-20T17:21:08.419Z,12.38
2022-11-20T17:23:36.934Z,12.20
2022-11-20T17:26:05.734Z,11.12
2022-11-20T17:28:33.143Z,10.98
2022-11-20T17:31:04.493Z,11.05
2022-11-20T17:33:31.531Z,11.71
2022-11-20T17:35:58.362Z,12.20
2022-11-20T17:38:25.091Z,11.83
2022-11-20T17:40:52.013Z,12.24
2022-11-20T17:43:19.103Z,12.00
2022-11-20T17:45:46.603Z,11.32
2022-11-20T17:48:13.546Z,10.80
2022-11-20T17:50:40.457Z,10.18
2022-11-20T17:53:07.755Z,10.45
2022-11-20T17:55:55.946Z,10.37
2022-11-20T17:58:23.099Z,10.09
2022-11-20T18:00:49.998Z,9.38
2022-11-20T18:03:16.694Z,9.85
2022-11-20T18:05:46.349Z,9.67
2022-11-20T18:08:13.246Z,9.46
2022-11-20T18:10:40.277Z,9.51
2022-11-20T18:13:07.137Z,9.32
2022-11-20T18:15:34.028Z,9.23
2022-11-20T18:18:00.878Z,9.65
2022-11-20T18:20:30.286Z,8.38
2022-11-20T18:22:59.016Z,8.36
2022-11-20T18:25:25.885Z,9.11
2022-11-20T18:27:52.775Z,9.27
2022-11-20T18:30:19.740Z,9.12
2022-11-20T18:32:46.616Z,8.90
2022-11-20T18:35:13.502Z,8.76
2022-11-20T18:37:41.009Z,8.59
2022-11-20T18:40:08.674Z,8.39
2022-11-20T18:42:55.786Z,9.14
2022-11-20T18:45:22.631Z,8.29
2022-11-20T18:47:49.422Z,9.30
2022-11-20T18:50:17.327Z,9.30
2022-11-20T18:52:48.070Z,9.24
2022-11-20T18:55:15.243Z,9.41
2022-11-20T18:57:42.176Z,10.69
2022-11-20T19:00:10.378Z,11.04
2022-11-20T19:02:42.043Z,10.58
2022-11-20T19:05:14.610Z,10.90
2022-11-20T19:07:41.761Z,10.03
2022-11-20T19:10:09.001Z,10.11
2022-11-20T19:12:35.951Z,10.39
2022-11-20T19:15:03.315Z,10.22
2022-11-20T19:17:30.161Z,10.11
2022-11-20T19:19:56.866Z,10.02
2022-11-20T19:22:23.741Z,9.11
2022-11-20T19:24:50.732Z,8.88
2022-11-20T19:27:17.586Z,9.17
2022-11-20T19:29:45.297Z,8.95
2022-11-20T19:32:12.161Z,9.27
2022-11-20T19:34:38.812Z,9.48
2022-11-20T19:37:05.692Z,9.39
2022-11-20T19:39:32.590Z,8.65
2022-11-20T19:41:59.447Z,8.59
2022-11-20T19:44:26.115Z,9.15
2022-11-20T19:46:53.072Z,8.70
2022-11-20T19:49:20.095Z,8.61
2022-11-20T19:51:48.886Z,8.68
2022-11-20T19:54:16.935Z,7.92
2022-11-20T19:56:45.543Z,8.83
2022-11-20T19:59:13.155Z,8.99
2022-11-20T20:01:40.107Z,9.15
2022-11-20T20:04:07.302Z,9.08
2022-11-20T20:06:35.966Z,8.73
2022-11-20T20:09:10.408Z,8.77
2022-11-20T20:11:37.570Z,9.50
2022-11-20T20:14:06.413Z,9.96
2022-11-20T20:16:34.464Z,9.37
2022-11-20T20:19:02.940Z,9.02
2022-11-20T20:21:31.008Z,8.96
2022-11-20T20:23:59.560Z,8.07
2022-11-20T20:26:30.261Z,8.45
2022-11-20T20:28:57.159Z,8.08
2022-11-20T20:31:26.582Z,8.16
2022-11-20T20:33:53.913Z,8.21
2022-11-20T20:36:22.180Z,8.15
2022-11-20T20:38:52.637Z,8.39
2022-11-20T20:41:20.331Z,8.98
2022-11-20T20:44:05.898Z,9.03
2022-11-20T20:46:32.925Z,9.40
2022-11-20T20:48:59.986Z,8.60
2022-11-20T20:51:26.840Z,9.45
2022-11-20T20:53:54.045Z,8.96
2022-11-20T20:56:21.468Z,9.01
2022-11-20T20:58:48.370Z,9.68
2022-11-20T21:01:17.509Z,9.03
2022-11-20T21:03:44.643Z,8.43
2022-11-20T21:06:12.503Z,8.19
2022-11-20T21:08:41.129Z,8.69
2022-11-20T21:11:16.314Z,7.79
2022-11-20T21:13:44.865Z,8.11
2022-11-20T21:16:13.305Z,8.17
2022-11-20T21:18:40.178Z,8.85
2022-11-20T21:21:27.165Z,7.04
2022-11-20T21:23:54.231Z,7.54
2022-11-20T21:26:21.827Z,8.00
2022-11-20T21:28:50.198Z,8.61
2022-11-20T21:31:22.685Z,9.19
2022-11-20T21:33:51.101Z,9.39
2022-11-20T21:36:20.032Z,9.97
2022-11-20T21:38:47.787Z,9.27
2022-11-20T21:41:15.351Z,9.29
2022-11-20T21:43:45.724Z,9.30
2022-11-20T21:46:14.497Z,9.50
2022-11-20T21:48:42.559Z,9.74
2022-11-20T21:51:14.640Z,9.65
2022-11-20T21:53:42.036Z,9.84
2022-11-20T21:56:10.196Z,10.43
2022-11-20T21:58:38.239Z,9.83
2022-11-20T22:01:38.175Z,9.55
2022-11-20T22:04:05.501Z,9.35
2022-11-20T22:06:33.983Z,10.30
2022-11-20T22:09:03.023Z,9.86
2022-11-20T22:11:30.104Z,9.69
2022-11-20T22:14:15.623Z,9.69
2022-11-20T22:16:42.516Z,9.63
2022-11-20T22:19:09.553Z,9.56
2022-11-20T22:21:39.812Z,9.68
2022-11-20T22:24:06.787Z,9.67
2022-11-20T22:26:40.227Z,9.59
2022-11-20T22:29:14.076Z,9.75
2022-11-20T22:31:40.998Z,9.57
2022-11-20T22:34:11.378Z,10.62
2022-11-20T22:36:38.737Z,11.01
2022-11-20T22:39:06.080Z,10.55
2022-11-20T22:41:33.700Z,10.32
2022-11-20T22:44:06.680Z,10.30
2022-11-20T22:46:35.084Z,9.77
2022-11-20T22:49:04.172Z,9.18
2022-11-20T22:51:33.757Z,9.08
2022-11-20T22:54:01.250Z,9.65
2022-11-20T22:56:28.128Z,9.86
2022-11-20T22:58:55.264Z,10.54
2022-11-20T23:01:24.138Z,10.43
2022-11-20T23:03:53.171Z,9.69
2022-11-20T23:06:20.976Z,9.33
2022-11-20T23:08:48.542Z,8.74
2022-11-20T23:11:17.650Z,8.76
2022-11-20T23:13:45.200Z,8.94
2022-11-20T23:16:16.323Z,9.71
2022-11-20T23:18:44.251Z,9.70
2022-11-20T23:21:12.236Z,9.14
2022-11-20T23:23:39.450Z,8.52
2022-11-20T23:26:09.403Z,8.56
2022-11-20T23:28:36.741Z,9.17
2022-11-20T23:31:04.507Z,8.76
2022-11-20T23:33:31.686Z,9.12
2022-11-20T23:35:58.557Z,8.57
2022-11-20T23:38:25.448Z,8.46
2022-11-20T23:40:52.813Z,8.34
2022-11-20T23:43:21.535Z,8.01
2022-11-20T23:45:50.319Z,9.03
2022-11-20T23:48:17.415Z,8.80
2022-11-20T23:50:44.563Z,9.16
2022-11-20T23:53:12.227Z,9.08
2022-11-20T23:55:39.102Z,9.27
2022-11-20T23:58:06.002Z,9.20
